createdAt,value
2017-04-18T00:00:11.351Z,0
2017-04-18T00:00:37.430Z,0
2017-04-18T00:01:03.531Z,0
2017-04-18T00:01:29.635Z,0
2017-04-18T00:01:55.718Z,0
2017-04-18T00:02:21.794Z,0
2017-04-18T00:02:47.924Z,0
2017-04-18T00:03:14.073Z,0
2017-04-18T00:03:40.224Z,0
2017-04-18T00:04:06.391Z,0
2017-04-18T00:04:32.517Z,0
2017-04-18T00:04:58.619Z,0
2017-04-18T00:05:24.699Z,0
2017-04-18T00:05:50.778Z,0
2017-04-18T00:06:16.857Z,0
2017-04-18T00:06:42.936Z,0
2017-04-18T00:07:09.018Z,0
2017-04-18T00:07:35.149Z,0
2017-04-18T00:08:01.273Z,0
2017-04-18T00:08:27.382Z,0
2017-04-18T00:08:53.511Z,0
2017-04-18T00:09:19.639Z,0
2017-04-18T00:09:45.742Z,0
2017-04-18T00:10:11.870Z,0
2017-04-18T00:10:37.972Z,0
2017-04-18T00:11:04.050Z,0
2017-04-18T00:11:30.151Z,0
2017-04-18T00:11:56.230Z,0
2017-04-18T00:12:22.335Z,0
2017-04-18T00:12:48.436Z,0
2017-04-18T00:13:14.565Z,0
2017-04-18T00:13:40.693Z,0
2017-04-18T00:14:06.824Z,0
2017-04-18T00:14:32.952Z,0
2017-04-18T00:14:59.062Z,0
2017-04-18T00:15:25.137Z,0
2017-04-18T00:15:51.241Z,0
2017-04-18T00:16:17.436Z,0
2017-04-18T00:16:43.516Z,0
2017-04-18T00:17:09.595Z,0
2017-04-18T00:17:35.676Z,0
2017-04-18T00:18:01.784Z,0
2017-04-18T00:18:27.911Z,0
2017-04-18T00:18:54.039Z,0
2017-04-18T00:19:20.146Z,0
2017-04-18T00:19:46.249Z,0
2017-04-18T00:20:12.356Z,0
2017-04-18T00:20:38.457Z,0
2017-04-18T00:21:04.665Z,0
2017-04-18T00:21:30.747Z,0
2017-04-18T00:21:56.828Z,0
2017-04-18T00:22:22.931Z,0
2017-04-18T00:22:49.035Z,0
2017-04-18T00:23:15.200Z,0
2017-04-18T00:23:41.326Z,0
2017-04-18T00:24:07.432Z,0
2017-04-18T00:24:33.538Z,0
2017-04-18T00:24:59.641Z,0
2017-04-18T00:25:25.723Z,0
2017-04-18T00:25:51.825Z,0
2017-04-18T00:26:17.905Z,0
2017-04-18T00:26:43.986Z,0
2017-04-18T00:27:10.090Z,0
2017-04-18T00:27:36.221Z,0
2017-04-18T00:28:02.340Z,0
2017-04-18T00:28:28.495Z,0
2017-04-18T00:28:54.637Z,0
2017-04-18T00:29:20.768Z,0
2017-04-18T00:29:46.869Z,0
2017-04-18T00:30:12.997Z,0
2017-04-18T00:30:39.125Z,0
2017-04-18T00:31:05.205Z,0
2017-04-18T00:31:31.284Z,0
2017-04-18T00:31:57.411Z,0
2017-04-18T00:32:23.702Z,0
2017-04-18T00:32:49.830Z,0
2017-04-18T00:33:15.934Z,0
2017-04-18T00:33:42.013Z,0
2017-04-18T00:34:08.118Z,0
2017-04-18T00:34:34.243Z,0
2017-04-18T00:35:00.325Z,0
2017-04-18T00:35:26.454Z,0
2017-04-18T00:35:52.534Z,0
2017-04-18T00:36:18.613Z,0
2017-04-18T00:36:44.718Z,0
2017-04-18T00:37:10.795Z,0
2017-04-18T00:37:36.877Z,0
2017-04-18T00:38:02.981Z,0
2017-04-18T00:38:29.107Z,0
2017-04-18T00:38:55.256Z,0
2017-04-18T00:39:21.406Z,0
2017-04-18T00:39:47.491Z,0
2017-04-18T00:40:13.589Z,0
2017-04-18T00:40:39.672Z,0
2017-04-18T00:41:05.755Z,0
2017-04-18T00:41:31.834Z,0
2017-04-18T00:41:57.938Z,0
2017-04-18T00:42:24.041Z,0
2017-04-18T00:42:50.122Z,0
2017-04-18T00:43:16.276Z,0
2017-04-18T00:43:42.380Z,0
2017-04-18T00:44:08.481Z,0
2017-04-18T00:44:34.583Z,0
2017-04-18T00:45:00.709Z,0
2017-04-18T00:45:26.791Z,0
2017-04-18T00:45:52.919Z,0
2017-04-18T00:46:19.022Z,0
2017-04-18T00:46:45.159Z,0
2017-04-18T00:47:11.263Z,0
2017-04-18T00:47:37.368Z,0
2017-04-18T00:48:03.519Z,0
2017-04-18T00:48:29.623Z,0
2017-04-18T00:48:55.726Z,0
2017-04-18T00:49:21.831Z,0
2017-04-18T00:49:47.934Z,0
2017-04-18T00:50:14.059Z,0
2017-04-18T00:50:40.187Z,0
2017-04-18T00:51:06.290Z,0
2017-04-18T00:51:32.393Z,0
2017-04-18T00:51:58.498Z,0
2017-04-18T00:52:24.765Z,0
2017-04-18T00:52:50.845Z,0
2017-04-18T00:53:16.999Z,0
2017-04-18T00:53:43.221Z,0
2017-04-18T00:54:09.369Z,0
2017-04-18T00:54:35.451Z,0
2017-04-18T00:55:01.527Z,0
2017-04-18T00:55:27.631Z,0
2017-04-18T00:55:53.734Z,0
2017-04-18T00:56:19.837Z,0
2017-04-18T00:56:45.940Z,0
2017-04-18T00:57:12.021Z,0
2017-04-18T00:57:38.147Z,0
2017-04-18T00:58:04.278Z,0
2017-04-18T00:58:30.406Z,0
2017-04-18T00:58:56.558Z,0
2017-04-18T00:59:22.665Z,0
2017-04-18T00:59:48.745Z,0
2017-04-18T01:00:14.851Z,0
2017-04-18T01:00:40.930Z,0
2017-04-18T01:01:07.011Z,0
2017-04-18T01:01:33.115Z,0
2017-04-18T01:01:59.193Z,0
2017-04-18T01:02:25.271Z,0
2017-04-18T01:02:51.410Z,0
2017-04-18T01:03:17.501Z,0
2017-04-18T01:03:43.648Z,0
2017-04-18T01:04:09.771Z,0
2017-04-18T01:04:35.854Z,0
2017-04-18T01:05:01.958Z,0
2017-04-18T01:05:28.082Z,0
2017-04-18T01:05:54.165Z,0
2017-04-18T01:06:20.268Z,0
2017-04-18T01:06:46.400Z,0
2017-04-18T01:07:12.477Z,0
2017-04-18T01:07:38.579Z,0
2017-04-18T01:08:04.708Z,0
2017-04-18T01:08:30.811Z,0
2017-04-18T01:08:56.912Z,0
2017-04-18T01:09:23.015Z,0
2017-04-18T01:09:49.143Z,0
2017-04-18T01:10:15.225Z,0
2017-04-18T01:10:41.330Z,0
2017-04-18T01:11:07.410Z,0
2017-04-18T01:11:33.489Z,0
2017-04-18T01:11:59.570Z,0
2017-04-18T01:12:25.651Z,0
2017-04-18T01:12:51.833Z,0
2017-04-18T01:13:17.936Z,0
2017-04-18T01:13:44.063Z,0
2017-04-18T01:14:10.186Z,0
2017-04-18T01:14:36.304Z,0
2017-04-18T01:15:02.409Z,0
2017-04-18T01:15:28.515Z,0
2017-04-18T01:15:54.596Z,0
2017-04-18T01:16:20.677Z,0
2017-04-18T01:16:46.804Z,0
2017-04-18T01:17:12.908Z,0
2017-04-18T01:17:39.011Z,0
2017-04-18T01:18:05.115Z,0
2017-04-18T01:18:31.314Z,0
2017-04-18T01:18:57.438Z,0
2017-04-18T01:19:23.541Z,0
2017-04-18T01:19:49.646Z,0
2017-04-18T01:20:15.747Z,0
2017-04-18T01:20:41.852Z,0
2017-04-18T01:21:07.932Z,0
2017-04-18T01:21:34.014Z,0
2017-04-18T01:22:00.119Z,0
2017-04-18T01:22:26.202Z,0
2017-04-18T01:22:52.328Z,0
2017-04-18T01:23:18.455Z,0
2017-04-18T01:23:44.534Z,0
2017-04-18T01:24:10.616Z,0
2017-04-18T01:24:36.743Z,0
2017-04-18T01:25:02.845Z,0
2017-04-18T01:25:29.186Z,0
2017-04-18T01:25:55.270Z,0
2017-04-18T01:26:21.375Z,0
2017-04-18T01:26:47.454Z,0
2017-04-18T01:27:13.534Z,0
2017-04-18T01:27:39.663Z,0
2017-04-18T01:28:05.790Z,0
2017-04-18T01:28:31.895Z,0
2017-04-18T01:28:58.023Z,0
2017-04-18T01:29:24.175Z,0
2017-04-18T01:29:50.255Z,0
2017-04-18T01:30:16.384Z,0
2017-04-18T01:30:42.514Z,0
2017-04-18T01:31:08.596Z,0
2017-04-18T01:31:34.726Z,0
2017-04-18T01:32:00.832Z,0
2017-04-18T01:32:26.937Z,0
2017-04-18T01:33:22.889Z,0
2017-04-18T01:33:49.023Z,0
2017-04-18T01:34:15.147Z,0
2017-04-18T01:34:41.255Z,0
2017-04-18T01:35:07.359Z,0
2017-04-18T01:35:33.462Z,0
2017-04-18T01:35:59.569Z,0
2017-04-18T01:36:25.652Z,0
2017-04-18T01:36:51.754Z,0
2017-04-18T01:37:17.834Z,0
2017-04-18T01:37:43.960Z,0
2017-04-18T01:38:10.066Z,0
2017-04-18T01:38:36.193Z,0
2017-04-18T01:39:02.366Z,0
2017-04-18T01:39:28.520Z,0
2017-04-18T01:39:54.673Z,0
2017-04-18T01:40:20.773Z,0
2017-04-18T01:40:46.878Z,0
2017-04-18T01:41:12.984Z,0
2017-04-18T01:41:39.065Z,0
2017-04-18T01:42:05.168Z,0
2017-04-18T01:42:31.337Z,0
2017-04-18T01:42:57.464Z,0
2017-04-18T01:43:23.613Z,0
2017-04-18T01:43:49.693Z,0
2017-04-18T01:44:15.801Z,0
2017-04-18T01:44:41.881Z,0
2017-04-18T01:45:08.030Z,0
2017-04-18T01:45:34.116Z,0
2017-04-18T01:46:00.612Z,0
2017-04-18T01:46:26.694Z,0
2017-04-18T01:46:52.861Z,0
2017-04-18T01:47:18.965Z,0
2017-04-18T01:47:45.113Z,0
2017-04-18T01:48:11.194Z,0
2017-04-18T01:48:37.275Z,0
2017-04-18T01:49:03.405Z,0
2017-04-18T01:49:29.508Z,0
2017-04-18T01:49:55.636Z,0
2017-04-18T01:50:21.741Z,0
2017-04-18T01:50:47.821Z,0
2017-04-18T01:51:13.901Z,0
2017-04-18T01:51:39.979Z,0
2017-04-18T01:52:06.061Z,0
2017-04-18T01:52:32.188Z,0
2017-04-18T01:52:58.342Z,0
2017-04-18T01:53:24.467Z,0
2017-04-18T01:53:50.621Z,0
2017-04-18T01:54:16.748Z,0
2017-04-18T01:54:42.871Z,0
2017-04-18T01:55:09.002Z,0
2017-04-18T01:55:35.082Z,0
2017-04-18T01:56:01.160Z,0
2017-04-18T01:56:27.241Z,0
2017-04-18T01:56:53.323Z,0
2017-04-18T01:57:19.432Z,0
2017-04-18T01:57:45.560Z,0
2017-04-18T01:58:11.664Z,0
2017-04-18T01:58:37.791Z,0
2017-04-18T01:59:03.896Z,0
2017-04-18T01:59:30.176Z,0
2017-04-18T01:59:56.278Z,0
2017-04-18T02:00:22.407Z,0
2017-04-18T02:00:48.484Z,0
2017-04-18T02:01:14.564Z,0
2017-04-18T02:01:40.669Z,0
2017-04-18T02:02:06.749Z,0
2017-04-18T02:02:32.855Z,0
2017-04-18T02:02:58.958Z,0
2017-04-18T02:03:25.096Z,0
2017-04-18T02:03:51.202Z,0
2017-04-18T02:04:17.330Z,0
2017-04-18T02:04:43.437Z,0
2017-04-18T02:05:09.516Z,0
2017-04-18T02:05:35.619Z,0
2017-04-18T02:06:01.724Z,0
2017-04-18T02:06:27.830Z,0
2017-04-18T02:06:53.955Z,0
2017-04-18T02:07:20.034Z,0
2017-04-18T02:07:46.139Z,0
2017-04-18T02:08:12.242Z,0
2017-04-18T02:08:38.437Z,0
2017-04-18T02:09:04.564Z,0
2017-04-18T02:09:30.670Z,0
2017-04-18T02:09:56.762Z,0
2017-04-18T02:10:22.864Z,0
2017-04-18T02:10:49.025Z,0
2017-04-18T02:11:15.106Z,0
2017-04-18T02:11:41.209Z,0
2017-04-18T02:12:07.316Z,0
2017-04-18T02:12:33.396Z,0
2017-04-18T02:12:59.671Z,0
2017-04-18T02:13:25.794Z,0
2017-04-18T02:13:51.877Z,0
2017-04-18T02:14:17.981Z,0
2017-04-18T02:14:44.083Z,0
2017-04-18T02:15:10.164Z,0
2017-04-18T02:15:36.266Z,0
2017-04-18T02:16:02.370Z,0
2017-04-18T02:16:28.451Z,0
2017-04-18T02:16:54.534Z,0
2017-04-18T02:17:20.619Z,0
2017-04-18T02:17:46.725Z,0
2017-04-18T02:18:12.829Z,0
2017-04-18T02:18:38.934Z,0
2017-04-18T02:19:05.079Z,0
2017-04-18T02:19:31.160Z,0
2017-04-18T02:19:57.242Z,0
2017-04-18T02:20:23.343Z,0
2017-04-18T02:20:49.422Z,0
2017-04-18T02:21:15.614Z,0
2017-04-18T02:21:41.695Z,0
2017-04-18T02:22:07.800Z,0
2017-04-18T02:22:33.905Z,0
2017-04-18T02:23:00.054Z,0
2017-04-18T02:23:26.182Z,0
2017-04-18T02:23:52.308Z,0
2017-04-18T02:24:18.434Z,0
2017-04-18T02:24:44.538Z,0
2017-04-18T02:25:10.639Z,0
2017-04-18T02:25:36.720Z,0
2017-04-18T02:26:02.797Z,0
2017-04-18T02:26:28.902Z,0
2017-04-18T02:26:55.006Z,0
2017-04-18T02:27:21.109Z,0
2017-04-18T02:27:47.212Z,0
2017-04-18T02:28:13.337Z,0
2017-04-18T02:28:39.488Z,0
2017-04-18T02:29:05.620Z,0
2017-04-18T02:29:31.725Z,0
2017-04-18T02:29:57.805Z,0
2017-04-18T02:30:23.978Z,0
2017-04-18T02:30:50.059Z,0
2017-04-18T02:31:16.140Z,0
2017-04-18T02:31:42.220Z,0
2017-04-18T02:32:08.299Z,0
2017-04-18T02:32:34.402Z,0
2017-04-18T02:33:00.556Z,0
2017-04-18T02:33:26.658Z,0
2017-04-18T02:33:52.759Z,0
2017-04-18T02:34:18.886Z,0
2017-04-18T02:34:45.034Z,0
2017-04-18T02:35:11.113Z,0
2017-04-18T02:35:37.219Z,0
2017-04-18T02:36:03.526Z,0
2017-04-18T02:36:29.628Z,0
2017-04-18T02:36:55.706Z,0
2017-04-18T02:37:21.859Z,0
2017-04-18T02:37:47.961Z,0
2017-04-18T02:38:14.113Z,0
2017-04-18T02:38:40.237Z,0
2017-04-18T02:39:06.390Z,0
2017-04-18T02:39:32.520Z,0
2017-04-18T02:39:58.646Z,0
2017-04-18T02:40:24.727Z,0
2017-04-18T02:40:50.857Z,0
2017-04-18T02:41:16.960Z,0
2017-04-18T02:41:43.039Z,0
2017-04-18T02:42:09.118Z,0
2017-04-18T02:42:35.223Z,0
2017-04-18T02:43:01.398Z,0
2017-04-18T02:43:27.521Z,0
2017-04-18T02:43:53.805Z,0
2017-04-18T02:44:19.957Z,0
2017-04-18T02:44:46.082Z,0
2017-04-18T02:45:12.183Z,0
2017-04-18T02:45:38.266Z,0
2017-04-18T02:46:04.349Z,0
2017-04-18T02:46:30.432Z,0
2017-04-18T02:46:56.515Z,0
2017-04-18T02:47:22.642Z,0
2017-04-18T02:47:48.770Z,0
2017-04-18T02:48:14.870Z,0
2017-04-18T02:48:41.042Z,0
2017-04-18T02:49:07.192Z,0
2017-04-18T02:49:33.298Z,0
2017-04-18T02:49:59.397Z,0
2017-04-18T02:50:25.476Z,0
2017-04-18T02:50:51.604Z,0
2017-04-18T02:51:17.708Z,0
2017-04-18T02:51:43.787Z,0
2017-04-18T02:52:09.867Z,0
2017-04-18T02:52:35.944Z,0
2017-04-18T02:53:02.050Z,0
2017-04-18T02:53:28.128Z,0
2017-04-18T02:53:54.232Z,0
2017-04-18T02:54:20.364Z,0
2017-04-18T02:54:46.443Z,0
2017-04-18T02:55:12.522Z,0
2017-04-18T02:55:38.628Z,0
2017-04-18T02:56:04.709Z,0
2017-04-18T02:56:30.869Z,0
2017-04-18T02:56:56.977Z,0
2017-04-18T02:57:23.115Z,0
2017-04-18T02:57:49.220Z,0
2017-04-18T02:58:15.321Z,0
2017-04-18T02:58:41.472Z,0
2017-04-18T02:59:07.573Z,0
2017-04-18T02:59:33.699Z,0
2017-04-18T02:59:59.805Z,0
2017-04-18T03:00:25.886Z,0
2017-04-18T03:00:51.988Z,0
2017-04-18T03:01:18.067Z,0
2017-04-18T03:01:44.158Z,0
2017-04-18T03:02:10.240Z,0
2017-04-18T03:02:36.346Z,0
2017-04-18T03:03:02.453Z,0
2017-04-18T03:03:28.533Z,0
2017-04-18T03:03:54.638Z,0
2017-04-18T03:04:20.765Z,0
2017-04-18T03:04:46.870Z,0
2017-04-18T03:05:12.992Z,0
2017-04-18T03:05:39.066Z,0
2017-04-18T03:06:05.169Z,0
2017-04-18T03:06:31.249Z,0
2017-04-18T03:06:57.353Z,0
2017-04-18T03:07:23.434Z,0
2017-04-18T03:07:49.538Z,0
2017-04-18T03:08:15.690Z,0
2017-04-18T03:08:41.772Z,0
2017-04-18T03:09:07.879Z,0
2017-04-18T03:09:33.961Z,0
2017-04-18T03:10:00.137Z,0
2017-04-18T03:10:26.219Z,0
2017-04-18T03:10:52.301Z,0
2017-04-18T03:11:18.383Z,0
2017-04-18T03:11:44.488Z,0
2017-04-18T03:12:10.569Z,0
2017-04-18T03:12:36.681Z,0
2017-04-18T03:13:02.825Z,0
2017-04-18T03:13:28.951Z,0
2017-04-18T03:13:55.049Z,0
2017-04-18T03:14:21.130Z,0
2017-04-18T03:14:47.309Z,0
2017-04-18T03:15:13.406Z,0
2017-04-18T03:15:39.512Z,0
2017-04-18T03:16:05.592Z,0
2017-04-18T03:16:31.672Z,0
2017-04-18T03:16:57.754Z,0
2017-04-18T03:17:23.833Z,0
2017-04-18T03:17:49.938Z,0
2017-04-18T03:18:16.064Z,0
2017-04-18T03:18:42.170Z,0
2017-04-18T03:19:08.296Z,0
2017-04-18T03:19:35.664Z,0
2017-04-18T03:20:02.809Z,0
2017-04-18T03:20:29.550Z,0
2017-04-18T03:20:56.686Z,0
2017-04-18T03:21:24.105Z,0
2017-04-18T03:21:50.144Z,0
2017-04-18T03:22:16.225Z,0
2017-04-18T03:22:42.306Z,0
2017-04-18T03:23:08.409Z,0
2017-04-18T03:23:34.705Z,0
2017-04-18T03:24:00.831Z,0
2017-04-18T03:24:26.937Z,0
2017-04-18T03:24:53.043Z,0
2017-04-18T03:25:19.147Z,0
2017-04-18T03:25:45.251Z,0
2017-04-18T03:26:11.358Z,0
2017-04-18T03:26:37.467Z,0
2017-04-18T03:27:03.549Z,0
2017-04-18T03:27:29.655Z,0
2017-04-18T03:27:55.785Z,0
2017-04-18T03:28:21.892Z,0
2017-04-18T03:28:47.996Z,0
2017-04-18T03:29:14.127Z,0
2017-04-18T03:29:40.228Z,0
2017-04-18T03:30:06.397Z,0
2017-04-18T03:30:32.678Z,0
2017-04-18T03:30:58.784Z,0
2017-04-18T03:31:24.890Z,0
2017-04-18T03:31:50.968Z,0
2017-04-18T03:32:17.046Z,0
2017-04-18T03:32:43.131Z,0
2017-04-18T03:33:09.305Z,0
2017-04-18T03:33:35.410Z,0
2017-04-18T03:34:01.484Z,0
2017-04-18T03:34:27.585Z,0
2017-04-18T03:34:53.686Z,0
2017-04-18T03:35:19.762Z,0
2017-04-18T03:35:45.865Z,0
2017-04-18T03:36:12.013Z,0
2017-04-18T03:36:38.095Z,0
2017-04-18T03:37:04.221Z,0
2017-04-18T03:37:30.321Z,0
2017-04-18T03:37:56.422Z,0
2017-04-18T03:38:22.543Z,0
2017-04-18T03:38:48.623Z,0
2017-04-18T03:39:14.752Z,0
2017-04-18T03:39:40.944Z,0
2017-04-18T03:40:07.023Z,0
2017-04-18T03:40:33.107Z,0
2017-04-18T03:40:59.187Z,0
2017-04-18T03:41:25.291Z,0
2017-04-18T03:41:51.497Z,0
2017-04-18T03:42:17.581Z,0
2017-04-18T03:42:43.686Z,0
2017-04-18T03:43:09.812Z,0
2017-04-18T03:43:35.891Z,0
2017-04-18T03:44:01.995Z,0
2017-04-18T03:44:28.100Z,0
2017-04-18T03:44:54.229Z,0
2017-04-18T03:45:20.483Z,0
2017-04-18T03:45:46.589Z,0
2017-04-18T03:46:12.667Z,0
2017-04-18T03:46:38.806Z,0
2017-04-18T03:47:04.883Z,0
2017-04-18T03:47:31.044Z,0
2017-04-18T03:47:57.143Z,0
2017-04-18T03:48:23.294Z,0
2017-04-18T03:48:49.403Z,0
2017-04-18T03:49:15.484Z,4
2017-04-18T03:49:41.615Z,4
2017-04-18T03:50:07.744Z,4
2017-04-18T03:50:33.847Z,4
2017-04-18T03:50:59.928Z,4
2017-04-18T03:51:26.030Z,0
2017-04-18T03:51:52.109Z,0
2017-04-18T03:52:18.190Z,0
2017-04-18T03:52:44.271Z,4
2017-04-18T03:53:10.399Z,4
2017-04-18T03:53:36.482Z,4
2017-04-18T03:54:02.587Z,4
2017-04-18T03:54:28.765Z,0
2017-04-18T03:54:54.870Z,4
2017-04-18T03:55:20.995Z,4
2017-04-18T03:55:47.122Z,4
2017-04-18T03:56:13.203Z,8
2017-04-18T03:56:39.308Z,4
2017-04-18T03:57:05.388Z,4
2017-04-18T03:57:31.489Z,8
2017-04-18T03:57:57.619Z,8
2017-04-18T03:58:23.723Z,8
2017-04-18T03:58:49.851Z,8
2017-04-18T03:59:15.957Z,8
2017-04-18T03:59:42.061Z,8
2017-04-18T04:00:08.164Z,12
2017-04-18T04:00:34.267Z,8
2017-04-18T04:01:00.394Z,12
2017-04-18T04:01:26.477Z,12
2017-04-18T04:01:52.576Z,12
2017-04-18T04:02:18.679Z,12
2017-04-18T04:02:44.805Z,16
2017-04-18T04:03:10.911Z,16
2017-04-18T04:03:37.017Z,16
2017-04-18T04:04:03.142Z,20
2017-04-18T04:04:29.223Z,20
2017-04-18T04:04:55.303Z,20
2017-04-18T04:05:21.407Z,20
2017-04-18T04:05:47.500Z,24
2017-04-18T04:06:13.605Z,24
2017-04-18T04:06:39.686Z,28
2017-04-18T04:07:05.808Z,28
2017-04-18T04:07:31.866Z,32
2017-04-18T04:07:57.970Z,32
2017-04-18T04:08:24.094Z,36
2017-04-18T04:08:50.195Z,40
2017-04-18T04:09:16.467Z,44
2017-04-18T04:09:42.547Z,44
2017-04-18T04:10:08.673Z,48
2017-04-18T04:10:34.754Z,48
2017-04-18T04:11:00.853Z,56
2017-04-18T04:11:26.936Z,56
2017-04-18T04:11:53.038Z,60
2017-04-18T04:12:19.151Z,64
2017-04-18T04:12:45.257Z,68
2017-04-18T04:13:11.358Z,72
2017-04-18T04:13:37.578Z,72
2017-04-18T04:14:03.685Z,80
2017-04-18T04:14:29.813Z,84
2017-04-18T04:14:55.895Z,88
2017-04-18T04:15:22.024Z,92
2017-04-18T04:15:48.127Z,100
2017-04-18T04:16:14.204Z,104
2017-04-18T04:16:40.329Z,108
2017-04-18T04:17:06.408Z,116
2017-04-18T04:17:32.534Z,124
2017-04-18T04:17:58.639Z,128
2017-04-18T04:18:24.741Z,136
2017-04-18T04:18:50.897Z,144
2017-04-18T04:19:16.993Z,152
2017-04-18T04:19:43.072Z,160
2017-04-18T04:20:09.175Z,168
2017-04-18T04:20:35.257Z,176
2017-04-18T04:21:01.338Z,184
2017-04-18T04:21:27.419Z,196
2017-04-18T04:21:53.498Z,200
2017-04-18T04:22:19.601Z,212
2017-04-18T04:22:45.683Z,220
2017-04-18T04:23:11.760Z,228
2017-04-18T04:23:37.843Z,244
2017-04-18T04:24:03.922Z,252
2017-04-18T04:24:30.024Z,260
2017-04-18T04:24:56.128Z,272
2017-04-18T04:25:22.280Z,284
2017-04-18T04:25:48.385Z,292
2017-04-18T04:26:14.464Z,308
2017-04-18T04:26:40.593Z,320
2017-04-18T04:27:06.696Z,332
2017-04-18T04:27:32.783Z,344
2017-04-18T04:27:58.929Z,356
2017-04-18T04:28:25.053Z,372
2017-04-18T04:28:51.135Z,384
2017-04-18T04:29:17.214Z,400
2017-04-18T04:29:43.343Z,412
2017-04-18T04:30:09.449Z,428
2017-04-18T04:30:35.531Z,444
2017-04-18T04:31:01.635Z,460
2017-04-18T04:31:27.740Z,480
2017-04-18T04:31:53.840Z,496
2017-04-18T04:32:19.922Z,512
2017-04-18T04:32:46.028Z,528
2017-04-18T04:33:12.135Z,544
2017-04-18T04:33:38.288Z,564
2017-04-18T04:34:04.495Z,580
2017-04-18T04:34:30.623Z,596
2017-04-18T04:34:56.703Z,616
2017-04-18T04:35:22.830Z,632
2017-04-18T04:35:48.932Z,652
2017-04-18T04:36:15.036Z,672
2017-04-18T04:36:41.138Z,692
2017-04-18T04:37:07.216Z,712
2017-04-18T04:37:33.296Z,728
2017-04-18T04:37:59.402Z,748
2017-04-18T04:38:25.525Z,768
2017-04-18T04:38:51.630Z,788
2017-04-18T04:39:17.713Z,812
2017-04-18T04:39:43.817Z,832
2017-04-18T04:40:09.898Z,852
2017-04-18T04:40:35.978Z,872
2017-04-18T04:41:02.059Z,888
2017-04-18T04:41:28.142Z,908
2017-04-18T04:41:54.222Z,932
2017-04-18T04:42:20.302Z,952
2017-04-18T04:42:46.405Z,968
2017-04-18T04:43:12.482Z,988
2017-04-18T04:43:38.589Z,1008
2017-04-18T04:44:04.673Z,1028
2017-04-18T04:44:30.815Z,1048
2017-04-18T04:44:56.903Z,1068
2017-04-18T04:45:23.005Z,1088
2017-04-18T04:45:49.111Z,1112
2017-04-18T04:46:15.213Z,1132
2017-04-18T04:46:41.317Z,1152
2017-04-18T04:47:07.396Z,1176
2017-04-18T04:47:33.476Z,1196
2017-04-18T04:47:59.600Z,1220
2017-04-18T04:48:25.679Z,1244
2017-04-18T04:48:51.785Z,1260
2017-04-18T04:49:17.865Z,1288
2017-04-18T04:49:43.993Z,1312
2017-04-18T04:50:10.075Z,1336
2017-04-18T04:50:36.156Z,1356
2017-04-18T04:51:02.258Z,1384
2017-04-18T04:51:28.468Z,1408
2017-04-18T04:51:54.551Z,1436
2017-04-18T04:52:20.634Z,1456
2017-04-18T04:52:46.738Z,1480
2017-04-18T04:53:12.841Z,1508
2017-04-18T04:53:38.963Z,1532
2017-04-18T04:54:05.088Z,1552
2017-04-18T04:54:31.171Z,1576
2017-04-18T04:54:57.300Z,1592
2017-04-18T04:55:23.403Z,1616
2017-04-18T04:55:49.577Z,1640
2017-04-18T04:56:15.659Z,1656
2017-04-18T04:56:41.785Z,1680
2017-04-18T04:57:07.866Z,1704
2017-04-18T04:57:33.973Z,1732
2017-04-18T04:58:00.098Z,1760
2017-04-18T04:58:26.179Z,1788
2017-04-18T04:58:52.304Z,1816
2017-04-18T04:59:18.408Z,1848
2017-04-18T04:59:44.513Z,1880
2017-04-18T05:00:10.593Z,1912
2017-04-18T05:00:36.709Z,1948
2017-04-18T05:01:02.815Z,1980
2017-04-18T05:01:28.896Z,2016
2017-04-18T05:01:54.999Z,2044
2017-04-18T05:02:21.082Z,2084
2017-04-18T05:02:47.187Z,2128
2017-04-18T05:03:13.314Z,2180
2017-04-18T05:03:39.416Z,2236
2017-04-18T05:04:05.548Z,2300
2017-04-18T05:04:31.624Z,2360
2017-04-18T05:04:57.728Z,2396
2017-04-18T05:05:23.831Z,2436
2017-04-18T05:05:49.935Z,2452
2017-04-18T05:06:16.014Z,2420
2017-04-18T05:06:42.123Z,2400
2017-04-18T05:07:08.196Z,2392
2017-04-18T05:07:34.280Z,2424
2017-04-18T05:08:00.408Z,2440
2017-04-18T05:08:26.534Z,2408
2017-04-18T05:08:52.639Z,2380
2017-04-18T05:09:18.743Z,2376
2017-04-18T05:09:45.000Z,2408
2017-04-18T05:10:11.176Z,2432
2017-04-18T05:10:37.279Z,2444
2017-04-18T05:11:03.358Z,2452
2017-04-18T05:11:29.483Z,2472
2017-04-18T05:11:55.563Z,2476
2017-04-18T05:12:21.690Z,2492
2017-04-18T05:12:47.794Z,2544
2017-04-18T05:13:13.947Z,2604
2017-04-18T05:13:40.053Z,2684
2017-04-18T05:14:06.180Z,2836
2017-04-18T05:14:32.261Z,3028
2017-04-18T05:14:58.343Z,3096
2017-04-18T05:15:24.567Z,3124
2017-04-18T05:15:50.689Z,3180
2017-04-18T05:16:16.794Z,3216
2017-04-18T05:16:42.920Z,3144
2017-04-18T05:17:09.046Z,3068
2017-04-18T05:17:35.149Z,3080
2017-04-18T05:18:01.253Z,3108
2017-04-18T05:18:27.423Z,3140
2017-04-18T05:18:53.677Z,3184
2017-04-18T05:19:19.797Z,3216
2017-04-18T05:19:45.924Z,3228
2017-04-18T05:20:12.030Z,3236
2017-04-18T05:20:38.134Z,3252
2017-04-18T05:21:04.215Z,3252
2017-04-18T05:21:30.319Z,3232
2017-04-18T05:21:56.399Z,3204
2017-04-18T05:22:22.479Z,3184
2017-04-18T05:22:48.562Z,3172
2017-04-18T05:23:14.688Z,3172
2017-04-18T05:23:40.769Z,3188
2017-04-18T05:24:06.851Z,3200
2017-04-18T05:24:32.978Z,3208
2017-04-18T05:24:59.059Z,3236
2017-04-18T05:25:25.163Z,3256
2017-04-18T05:25:51.265Z,3276
2017-04-18T05:26:17.413Z,3292
2017-04-18T05:26:43.517Z,3324
2017-04-18T05:27:09.598Z,3360
2017-04-18T05:27:35.679Z,3448
2017-04-18T05:28:01.830Z,3500
2017-04-18T05:28:27.934Z,3524
2017-04-18T05:28:54.124Z,3520
2017-04-18T05:29:20.254Z,3484
2017-04-18T05:29:46.358Z,3364
2017-04-18T05:30:12.494Z,3204
2017-04-18T05:30:38.594Z,3092
2017-04-18T05:31:04.678Z,3028
2017-04-18T05:31:30.781Z,2944
2017-04-18T05:31:56.861Z,2884
2017-04-18T05:32:23.116Z,2820
2017-04-18T05:32:49.241Z,2712
2017-04-18T05:33:15.323Z,2600
2017-04-18T05:33:41.428Z,2536
2017-04-18T05:34:07.579Z,2496
2017-04-18T05:34:33.707Z,2492
2017-04-18T05:34:59.846Z,2504
2017-04-18T05:35:25.892Z,2548
2017-04-18T05:35:51.969Z,2580
2017-04-18T05:36:18.049Z,2556
2017-04-18T05:36:44.154Z,2572
2017-04-18T05:37:10.259Z,2656
2017-04-18T05:37:36.338Z,2708
2017-04-18T05:38:02.465Z,2800
2017-04-18T05:38:28.566Z,2884
2017-04-18T05:38:54.694Z,2856
2017-04-18T05:39:20.822Z,2852
2017-04-18T05:39:46.925Z,2860
2017-04-18T05:40:13.052Z,2916
2017-04-18T05:40:39.222Z,2964
2017-04-18T05:41:05.348Z,3028
2017-04-18T05:41:31.608Z,3044
2017-04-18T05:41:57.688Z,3120
2017-04-18T05:42:23.816Z,3336
2017-04-18T05:42:49.921Z,3728
2017-04-18T05:43:16.004Z,4312
2017-04-18T05:43:42.085Z,4756
2017-04-18T05:44:08.372Z,4944
2017-04-18T05:44:34.454Z,5196
2017-04-18T05:45:00.557Z,5208
2017-04-18T05:45:26.636Z,5180
2017-04-18T05:45:52.716Z,5160
2017-04-18T05:46:18.799Z,4920
2017-04-18T05:46:44.882Z,4532
2017-04-18T05:47:10.957Z,4228
2017-04-18T05:47:37.035Z,3968
2017-04-18T05:48:03.142Z,3800
2017-04-18T05:48:29.226Z,3676
2017-04-18T05:48:55.378Z,3592
2017-04-18T05:49:21.484Z,3572
2017-04-18T05:49:47.566Z,3576
2017-04-18T05:50:13.694Z,3576
2017-04-18T05:50:39.775Z,3592
2017-04-18T05:51:05.877Z,3640
2017-04-18T05:51:31.980Z,3704
2017-04-18T05:51:58.064Z,3776
2017-04-18T05:52:24.167Z,3864
2017-04-18T05:52:50.274Z,3928
2017-04-18T05:53:16.373Z,3976
2017-04-18T05:53:42.480Z,4000
2017-04-18T05:54:08.583Z,3992
2017-04-18T05:54:34.687Z,3932
2017-04-18T05:55:00.791Z,3988
2017-04-18T05:55:26.898Z,3936
2017-04-18T05:55:52.978Z,4000
2017-04-18T05:56:19.062Z,3968
2017-04-18T05:56:45.161Z,3936
2017-04-18T05:57:11.265Z,3928
2017-04-18T05:57:37.834Z,3972
2017-04-18T05:58:03.913Z,4056
2017-04-18T05:58:30.040Z,4208
2017-04-18T05:58:56.190Z,4392
2017-04-18T05:59:22.296Z,4636
2017-04-18T05:59:48.376Z,4940
2017-04-18T06:00:14.457Z,5184
2017-04-18T06:00:40.537Z,5420
2017-04-18T06:01:06.616Z,5736
2017-04-18T06:01:32.723Z,6160
2017-04-18T06:01:58.802Z,6536
2017-04-18T06:02:24.908Z,6944
2017-04-18T06:02:51.012Z,7384
2017-04-18T06:03:17.093Z,7860
2017-04-18T06:03:43.267Z,8332
2017-04-18T06:04:09.371Z,8676
2017-04-18T06:04:35.496Z,8924
2017-04-18T06:05:01.600Z,9096
2017-04-18T06:05:27.680Z,9204
2017-04-18T06:05:53.949Z,9248
2017-04-18T06:06:20.027Z,9304
2017-04-18T06:06:46.107Z,9388
2017-04-18T06:07:12.346Z,9332
2017-04-18T06:07:38.453Z,9136
2017-04-18T06:08:04.556Z,8996
2017-04-18T06:08:30.661Z,9068
2017-04-18T06:08:56.814Z,8848
2017-04-18T06:09:22.921Z,8612
2017-04-18T06:09:49.002Z,8384
2017-04-18T06:10:15.103Z,8244
2017-04-18T06:10:41.183Z,8204
2017-04-18T06:11:07.261Z,8232
2017-04-18T06:11:33.341Z,8268
2017-04-18T06:11:59.424Z,8296
2017-04-18T06:12:25.506Z,8348
2017-04-18T06:12:51.811Z,8416
2017-04-18T06:13:17.893Z,8496
2017-04-18T06:13:44.061Z,8452
2017-04-18T06:14:10.189Z,8276